Time;durP1;ratioP1;P1;durP2;ratioP2;P2;SDS_P1;SDS_P2;PMS_P1;PMS_P2;Temp;Humidity;BMP_temperature;BMP_pressure;BME280_temperature;BME280_humidity;BME280_pressure;Samples;Min_cycle;Max_cycle;Signal;HPM_P1;HPM_P2
2023/10/23 00:00:19;;;;;;;11.70;5.50;;;;;;;22.69;55.94;101235.20;106242;1275;25386;-64
2023/10/23 00:02:46;;;;;;;10.50;5.40;;;;;;;22.68;55.83;101234.16;106258;1264;25395;-64
2023/10/23 00:05:13;;;;;;;8.60;4.60;;;;;;;22.68;55.80;101230.86;106271;1261;25472;-71
2023/10/23 00:07:40;;;;;;;8.80;4.90;;;;;;;22.65;55.59;101234.50;106182;1265;25357;-67
2023/10/23 00:10:08;;;;;;;13.70;6.00;;;;;;;22.65;55.58;101237.01;106160;1265;25438;-64
2023/10/23 00:12:35;;;;;;;11.20;5.20;;;;;;;22.65;55.32;101245.13;106710;1262;25373;-68
2023/10/23 00:15:02;;;;;;;14.90;5.80;;;;;;;22.62;55.23;101247.27;106734;1262;25444;-65
2023/10/23 00:17:29;;;;;;;8.00;5.30;;;;;;;22.58;55.20;101251.95;106687;1259;23137;-66
2023/10/23 00:19:56;;;;;;;10.70;5.20;;;;;;;22.50;55.34;101256.80;106778;1262;25386;-67
2023/10/23 00:22:23;;;;;;;16.30;5.90;;;;;;;22.44;55.53;101258.15;106663;1268;25358;-65
2023/10/23 00:24:50;;;;;;;14.20;5.30;;;;;;;22.39;55.73;101254.72;105692;1265;1003019;-65
2023/10/23 00:27:17;;;;;;;10.70;5.00;;;;;;;22.34;55.92;101247.42;106868;1270;25507;-64
2023/10/23 00:29:44;;;;;;;12.30;4.80;;;;;;;22.32;56.01;101250.24;106545;1262;289593;-63
2023/10/23 00:32:11;;;;;;;11.90;5.20;;;;;;;22.27;55.90;101245.05;106370;1272;25409;-69
2023/10/23 00:34:38;;;;;;;12.70;5.40;;;;;;;22.23;55.94;101240.17;106580;1262;23386;-64
2023/10/23 00:37:05;;;;;;;10.10;4.90;;;;;;;22.22;55.79;101250.48;106656;1260;22552;-66
2023/10/23 00:39:32;;;;;;;7.90;5.00;;;;;;;22.22;55.73;101252.44;106682;1262;25485;-68
2023/10/23 00:41:59;;;;;;;7.00;4.70;;;;;;;22.22;55.63;101256.13;106419;1271;25411;-72
2023/10/23 00:44:27;;;;;;;12.10;5.10;;;;;;;22.22;55.56;101256.19;106764;1270;25407;-69
2023/10/23 00:46:54;;;;;;;14.00;5.50;;;;;;;22.22;55.30;101258.83;106663;1259;25406;-70
2023/10/23 00:49:22;;;;;;;13.70;4.60;;;;;;;22.32;54.88;101266.83;106760;1261;25367;-69
2023/10/23 00:51:49;;;;;;;10.40;4.80;;;;;;;22.38;54.63;101268.95;106826;1270;22593;-66
2023/10/23 00:54:16;;;;;;;11.30;5.10;;;;;;;22.38;54.13;101264.66;106726;1262;25370;-66
2023/10/23 00:56:43;;;;;;;11.60;5.10;;;;;;;22.38;53.89;101268.79;106702;1266;25511;-67
2023/10/23 00:59:11;;;;;;;12.00;5.70;;;;;;;22.36;53.63;101272.20;106458;1264;25425;-73
2023/10/23 01:01:37;;;;;;;10.20;5.40;;;;;;;22.29;53.84;101268.09;106526;1268;22540;-63
2023/10/23 01:04:05;;;;;;;13.50;5.80;;;;;;;22.17;54.16;101264.96;106813;1260;24211;-65
2023/10/23 01:06:32;;;;;;;14.40;5.90;;;;;;;22.12;54.10;101261.58;106353;1267;25376;-65
2023/10/23 01:08:59;;;;;;;10.70;5.00;;;;;;;22.08;54.22;101260.56;106784;1261;25407;-66
2023/10/23 01:11:26;;;;;;;9.70;5.70;;;;;;;22.06;54.28;101261.09;106332;1271;25393;-67
2023/10/23 01:13:54;;;;;;;12.00;6.30;;;;;;;22.02;54.35;101259.91;106564;1272;25448;-71
2023/10/23 01:16:20;;;;;;;9.80;5.40;;;;;;;22.00;54.22;101261.73;106730;1275;25358;-67
2023/10/23 01:18:47;;;;;;;13.00;5.60;;;;;;;21.99;53.91;101263.77;106845;1260;25421;-67
2023/10/23 01:21:14;;;;;;;15.10;5.70;;;;;;;21.98;53.62;101267.75;106785;1270;25435;-67
2023/10/23 01:23:43;;;;;;;14.80;6.40;;;;;;;21.97;53.41;101270.97;106630;1262;25347;-68
2023/10/23 01:26:09;;;;;;;11.10;5.30;;;;;;;21.95;52.99;101270.22;106783;1260;22532;-66
2023/10/23 01:28:36;;;;;;;12.50;5.00;;;;;;;21.94;52.88;101274.36;106460;1271;25358;-71
2023/10/23 01:31:03;;;;;;;10.80;5.10;;;;;;;21.93;52.82;101276.53;106455;1262;25428;-67
2023/10/23 01:33:31;;;;;;;11.70;5.30;;;;;;;21.92;52.82;101283.62;106787;1262;25385;-68
2023/10/23 01:35:58;;;;;;;10.50;5.50;;;;;;;21.91;52.62;101281.57;106452;1270;25430;-65
2023/10/23 01:38:25;;;;;;;9.00;5.20;;;;;;;21.90;52.62;101286.08;106263;1262;23864;-66
2023/10/23 01:40:52;;;;;;;9.20;4.90;;;;;;;21.88;52.49;101289.90;106142;1265;25376;-68
2023/10/23 01:43:19;;;;;;;7.60;5.60;;;;;;;21.86;52.32;101291.23;106329;1257;25504;-66
2023/10/23 01:45:46;;;;;;;14.40;6.70;;;;;;;21.83;52.30;101294.23;106524;1266;25350;-68
2023/10/23 01:48:13;;;;;;;15.50;5.20;;;;;;;21.81;52.25;101294.88;106707;1268;24213;-68
2023/10/23 01:50:40;;;;;;;9.00;5.50;;;;;;;21.78;52.11;101293.45;106814;1257;23874;-66
2023/10/23 01:53:08;;;;;;;10.90;5.80;;;;;;;21.76;52.20;101287.78;106771;1262;25366;-66
2023/10/23 01:55:35;;;;;;;11.70;5.70;;;;;;;21.73;52.14;101283.55;106771;1262;25362;-67
2023/10/23 01:58:02;;;;;;;13.50;5.20;;;;;;;21.70;51.97;101291.11;106703;1274;25412;-67
2023/10/23 02:00:29;;;;;;;12.20;5.40;;;;;;;21.67;51.94;101296.75;106544;1270;25438;-68
2023/10/23 02:02:57;;;;;;;11.50;5.10;;;;;;;21.65;51.70;101296.90;106157;1281;25421;-70
2023/10/23 02:05:24;;;;;;;9.80;5.20;;;;;;;21.61;51.35;101304.02;106675;1264;25409;-69
2023/10/23 02:07:51;;;;;;;10.90;6.00;;;;;;;21.58;51.37;101305.64;106744;1263;25357;-68
2023/10/23 02:10:18;;;;;;;9.50;6.30;;;;;;;21.54;51.34;101299.69;106713;1262;25368;-65
2023/10/23 02:12:45;;;;;;;10.80;5.50;;;;;;;21.51;51.32;101297.23;106752;1262;23216;-67
2023/10/23 02:15:13;;;;;;;12.10;5.60;;;;;;;21.47;51.39;101297.66;106663;1262;25355;-69
2023/10/23 02:17:41;;;;;;;9.10;5.50;;;;;;;21.41;51.43;101294.10;106588;1272;25373;-67
2023/10/23 02:20:08;;;;;;;11.50;5.30;;;;;;;21.36;51.54;101295.46;106765;1259;25435;-67
2023/10/23 02:22:36;;;;;;;8.20;5.00;;;;;;;21.31;51.63;101306.52;106531;1270;24271;-69
2023/10/23 02:25:04;;;;;;;13.10;4.90;;;;;;;21.28;51.70;101317.14;106764;1262;25510;-73
2023/10/23 02:27:31;;;;;;;11.20;5.10;;;;;;;21.20;51.58;101319.66;106745;1262;25416;-67
2023/10/23 02:29:58;;;;;;;7.40;5.30;;;;;;;21.18;51.52;101318.93;106701;1262;25437;-74
2023/10/23 02:32:25;;;;;;;11.50;5.20;;;;;;;21.17;51.40;101325.84;106719;1262;25383;-69
2023/10/23 02:34:53;;;;;;;8.20;4.40;;;;;;;21.18;51.32;101326.86;106806;1268;22529;-69
2023/10/23 02:37:20;;;;;;;10.40;5.50;;;;;;;21.16;51.22;101325.05;106721;1262;25361;-69
2023/10/23 02:39:47;;;;;;;12.40;5.40;;;;;;;21.18;51.05;101322.11;106768;1271;25361;-67
2023/10/23 02:42:14;;;;;;;14.10;5.80;;;;;;;21.16;50.94;101323.09;106684;1262;25510;-69
2023/10/23 02:44:43;;;;;;;13.20;6.00;;;;;;;21.12;50.98;101324.89;106763;1262;23908;-67
2023/10/23 02:47:10;;;;;;;17.00;6.00;;;;;;;21.13;50.91;101325.73;106730;1275;25358;-66
2023/10/23 02:49:38;;;;;;;11.40;5.50;;;;;;;21.12;50.71;101330.91;106749;1260;22536;-66
2023/10/23 02:52:06;;;;;;;13.20;6.30;;;;;;;21.11;50.57;101329.89;106634;1262;25351;-68
2023/10/23 02:54:33;;;;;;;16.10;6.90;;;;;;;21.08;50.49;101331.32;106874;1262;23394;-67
2023/10/23 02:57:00;;;;;;;16.80;7.40;;;;;;;21.04;50.40;101330.46;106618;1262;25386;-68
2023/10/23 02:59:27;;;;;;;13.00;5.80;;;;;;;20.99;50.48;101334.53;106730;1271;22548;-66
2023/10/23 03:01:55;;;;;;;11.60;5.30;;;;;;;20.94;50.43;101333.13;106731;1262;25376;-67
2023/10/23 03:04:22;;;;;;;11.10;5.50;;;;;;;20.88;50.47;101335.04;106806;1268;25358;-69
2023/10/23 03:06:49;;;;;;;11.60;5.40;;;;;;;20.85;50.46;101331.64;106776;1262;25434;-69
2023/10/23 03:09:16;;;;;;;10.80;4.90;;;;;;;20.81;50.50;101332.24;106746;1260;24281;-68
2023/10/23 03:11:42;;;;;;;9.90;4.80;;;;;;;20.80;50.52;101334.58;106691;1262;25364;-70
2023/10/23 03:14:10;;;;;;;8.10;4.90;;;;;;;20.78;50.50;101334.85;106454;1262;25358;-74
2023/10/23 03:16:37;;;;;;;13.60;5.20;;;;;;;20.79;50.51;101336.05;106152;1265;25336;-66
2023/10/23 03:19:05;;;;;;;14.10;6.20;;;;;;;20.78;50.48;101339.61;106222;1277;23871;-67
2023/10/23 03:21:34;;;;;;;10.10;5.60;;;;;;;20.78;50.31;101338.05;106347;1262;22534;-67
2023/10/23 03:24:01;;;;;;;12.60;6.10;;;;;;;20.74;50.06;101336.47;106301;1265;25358;-69
2023/10/23 03:26:28;;;;;;;8.30;5.10;;;;;;;20.73;49.92;101339.89;106351;1271;25469;-70
2023/10/23 03:28:55;;;;;;;16.10;5.50;;;;;;;20.73;49.84;101339.36;106475;1271;25359;-72
2023/10/23 03:31:23;;;;;;;11.90;5.40;;;;;;;20.72;49.75;101342.09;106704;1262;25532;-67
2023/10/23 03:33:50;;;;;;;8.50;4.50;;;;;;;20.65;49.57;101344.75;106664;1262;24248;-69
2023/10/23 03:36:17;;;;;;;12.00;5.30;;;;;;;20.59;49.63;101344.55;106806;1262;24345;-69
2023/10/23 03:38:45;;;;;;;7.40;4.80;;;;;;;20.56;49.67;101341.75;106832;1260;25389;-68
2023/10/23 03:41:12;;;;;;;11.10;5.30;;;;;;;20.50;49.58;101343.27;106747;1259;25358;-70
2023/10/23 03:43:40;;;;;;;15.20;5.50;;;;;;;20.49;49.35;101345.48;106417;1275;25358;-76
2023/10/23 03:46:08;;;;;;;8.70;4.90;;;;;;;20.45;49.35;101352.04;106737;1268;22536;-69
2023/10/23 03:48:35;;;;;;;10.00;4.70;;;;;;;20.42;49.47;101353.23;106792;1261;22530;-70
2023/10/23 03:51:03;;;;;;;11.80;5.80;;;;;;;20.40;49.35;101352.81;106307;1266;25351;-69
2023/10/23 03:53:30;;;;;;;11.70;5.10;;;;;;;20.33;49.45;101352.13;106674;1262;25361;-68
2023/10/23 03:55:57;;;;;;;10.60;5.60;;;;;;;20.28;49.36;101357.16;106504;1272;25431;-71
2023/10/23 03:58:24;;;;;;;10.80;5.30;;;;;;;20.26;49.44;101357.95;106697;1262;25358;-70
2023/10/23 04:00:51;;;;;;;8.30;4.70;;;;;;;20.25;49.57;101357.30;106759;1260;22536;-68
2023/10/23 04:03:18;;;;;;;12.90;5.20;;;;;;;20.24;49.67;101355.08;106734;1262;25361;-68
2023/10/23 04:05:45;;;;;;;9.70;5.10;;;;;;;20.25;49.93;101354.70;106339;1265;25350;-68
2023/10/23 04:08:12;;;;;;;13.80;5.30;;;;;;;20.28;49.96;101356.44;106431;1265;25350;-70
2023/10/23 04:10:46;;;;;;;8.50;4.50;;;;;;;20.30;49.83;101356.68;106750;1262;25347;-67
2023/10/23 04:13:14;;;;;;;14.70;5.30;;;;;;;20.33;49.66;101355.33;106365;1261;25410;-69
2023/10/23 04:16:00;;;;;;;11.20;5.20;;;;;;;20.35;49.66;101353.27;106502;1264;25541;-70
2023/10/23 04:18:28;;;;;;;14.00;5.80;;;;;;;20.36;49.40;101356.17;106372;1266;25392;-68
2023/10/23 04:21:07;;;;;;;12.20;5.90;;;;;;;20.37;49.36;101353.69;106708;1271;24231;-68
2023/10/23 04:23:35;;;;;;;12.90;5.50;;;;;;;20.37;49.25;101358.63;106798;1272;25380;-69
2023/10/23 04:26:02;;;;;;;15.30;5.80;;;;;;;20.35;49.22;101358.05;106734;1262;25478;-67
2023/10/23 04:28:31;;;;;;;14.30;4.50;;;;;;;20.29;49.08;101362.39;106700;1262;25358;-69
2023/10/23 04:30:58;;;;;;;13.30;5.30;;;;;;;20.28;49.11;101368.61;106550;1265;25467;-69
2023/10/23 04:33:26;;;;;;;11.90;4.50;;;;;;;20.27;49.00;101373.93;106418;1265;25422;-69
2023/10/23 04:35:54;;;;;;;12.10;4.70;;;;;;;20.29;48.94;101376.84;106330;1272;25358;-71
2023/10/23 04:38:21;;;;;;;10.00;4.40;;;;;;;20.26;48.86;101378.92;106704;1261;25334;-69
2023/10/23 04:40:50;;;;;;;12.50;4.30;;;;;;;20.25;48.75;101382.86;106663;1262;25386;-71
2023/10/23 04:43:16;;;;;;;10.50;4.50;;;;;;;20.26;48.70;101383.86;106700;1262;22956;-71
2023/10/23 04:45:43;;;;;;;10.40;4.90;;;;;;;20.27;48.64;101389.08;106379;1268;25441;-69
2023/10/23 04:48:11;;;;;;;10.10;4.70;;;;;;;20.27;48.48;101388.01;106313;1279;25361;-74
2023/10/23 04:50:38;;;;;;;12.60;4.70;;;;;;;20.28;48.48;101392.89;106370;1272;25438;-70
2023/10/23 04:53:06;;;;;;;9.40;4.70;;;;;;;20.28;48.53;101395.55;106418;1262;25304;-69
2023/10/23 04:55:38;;;;;;;15.40;4.60;;;;;;;20.28;48.69;101397.83;106354;1262;25358;-70
2023/10/23 04:58:05;;;;;;;7.30;4.40;;;;;;;20.30;48.83;101400.06;106552;1262;24255;-68
2023/10/23 05:00:36;;;;;;;12.20;4.80;;;;;;;20.32;48.82;101397.84;106425;1256;25510;-72
2023/10/23 05:03:03;;;;;;;11.30;4.80;;;;;;;20.34;48.64;101400.52;106831;1262;22651;-68
2023/10/23 05:05:31;;;;;;;8.90;4.60;;;;;;;20.36;48.52;101400.08;106372;1266;24229;-69
2023/10/23 05:07:58;;;;;;;13.90;4.50;;;;;;;20.38;48.50;101399.64;106712;1262;25253;-68
2023/10/23 05:10:25;;;;;;;11.90;5.40;;;;;;;20.39;48.49;101405.37;106723;1262;25426;-67
2023/10/23 05:12:53;;;;;;;13.00;4.90;;;;;;;20.41;48.41;101410.55;106350;1269;25334;-68
2023/10/23 05:15:20;;;;;;;7.50;5.10;;;;;;;20.43;48.42;101415.24;106744;1262;25507;-68
2023/10/23 05:17:47;;;;;;;10.00;5.60;;;;;;;20.43;48.42;101417.88;106876;1273;25372;-71
2023/10/23 05:20:15;;;;;;;10.70;5.50;;;;;;;20.44;48.46;101420.11;106776;1260;23747;-74
2023/10/23 05:22:41;;;;;;;9.40;5.50;;;;;;;20.46;48.62;101420.72;106735;1262;22673;-71
2023/10/23 05:25:09;;;;;;;8.90;5.10;;;;;;;20.48;48.62;101424.48;106392;1265;25450;-73
2023/10/23 05:27:37;;;;;;;10.80;4.90;;;;;;;20.50;48.71;101431.25;106679;1268;22534;-70
2023/10/23 05:30:05;;;;;;;10.40;5.20;;;;;;;20.54;48.67;101437.38;106732;1262;25386;-69
2023/10/23 05:32:34;;;;;;;16.80;5.50;;;;;;;20.58;48.57;101439.99;106685;1262;24281;-71
2023/10/23 05:35:03;;;;;;;8.50;4.80;;;;;;;20.63;48.16;101443.97;106699;1262;24274;-74
2023/10/23 05:37:34;;;;;;;13.60;5.70;;;;;;;20.66;47.51;101450.49;106674;1262;22534;-69
2023/10/23 05:40:04;;;;;;;13.30;6.50;;;;;;;20.69;47.31;101451.91;106727;1262;25354;-71
2023/10/23 05:42:32;;;;;;;9.70;5.90;;;;;;;20.87;46.98;101453.73;106708;1263;23221;-71
2023/10/23 05:45:00;;;;;;;14.60;5.80;;;;;;;20.90;47.14;101458.55;106648;1262;25511;-69
2023/10/23 05:47:28;;;;;;;10.80;5.60;;;;;;;20.95;47.15;101460.02;106811;1262;25378;-72
2023/10/23 05:49:55;;;;;;;12.80;5.60;;;;;;;21.13;46.92;101464.55;106699;1262;23908;-69
2023/10/23 05:52:22;;;;;;;11.10;6.00;;;;;;;21.35;46.55;101462.45;106687;1272;25373;-72
2023/10/23 05:54:49;;;;;;;10.80;5.30;;;;;;;21.43;46.54;101461.66;106665;1259;25511;-69
2023/10/23 05:57:16;;;;;;;12.50;5.80;;;;;;;21.49;46.70;101462.23;106682;1262;25359;-70
2023/10/23 05:59:43;;;;;;;14.30;5.40;;;;;;;21.53;46.94;101462.65;106702;1262;25472;-69
2023/10/23 06:02:10;;;;;;;15.80;6.50;;;;;;;21.59;47.03;101467.26;106006;1262;1003121;-70
2023/10/23 06:04:44;;;;;;;10.80;5.60;;;;;;;21.65;47.21;101473.83;106738;1262;24255;-70
2023/10/23 06:07:12;;;;;;;12.70;5.80;;;;;;;21.70;47.34;101467.69;105265;1270;1003784;-69
2023/10/23 06:09:39;;;;;;;12.80;5.30;;;;;;;21.77;47.33;101470.66;106658;1270;25350;-68
2023/10/23 06:12:07;;;;;;;9.30;5.50;;;;;;;21.83;47.24;101474.43;106847;1271;23875;-72
2023/10/23 06:14:35;;;;;;;17.50;5.40;;;;;;;21.88;47.05;101474.14;106486;1266;25457;-70
2023/10/23 06:17:03;;;;;;;8.70;4.90;;;;;;;21.91;47.12;101479.94;106798;1262;25469;-72
2023/10/23 06:19:33;;;;;;;11.90;5.20;;;;;;;21.95;46.94;101483.27;106432;1270;25344;-70
2023/10/23 06:21:59;;;;;;;11.90;5.30;;;;;;;21.95;46.88;101484.13;106743;1270;25287;-69
2023/10/23 06:24:27;;;;;;;12.50;5.10;;;;;;;21.76;47.13;101492.41;106664;1262;22527;-71
2023/10/23 06:26:54;;;;;;;15.10;5.20;;;;;;;21.73;47.28;101496.33;106812;1263;25361;-70
2023/10/23 06:29:21;;;;;;;10.20;5.20;;;;;;;21.74;47.42;101499.09;106638;1260;25510;-69
2023/10/23 06:31:48;;;;;;;9.00;4.60;;;;;;;21.77;47.45;101501.23;106478;1263;25358;-71
2023/10/23 06:34:15;;;;;;;13.20;5.60;;;;;;;21.79;47.59;101501.48;106430;1262;25386;-70
2023/10/23 06:36:43;;;;;;;11.10;5.20;;;;;;;21.82;47.71;101504.13;106495;1259;25358;-72
2023/10/23 06:39:12;;;;;;;12.40;5.00;;;;;;;21.86;47.78;101503.20;106806;1262;23477;-69
2023/10/23 06:41:39;;;;;;;9.40;5.00;;;;;;;21.89;47.78;101508.35;106467;1264;25534;-69
2023/10/23 06:44:06;;;;;;;11.20;5.10;;;;;;;21.92;47.94;101514.01;106935;1262;25585;-70
2023/10/23 06:46:33;;;;;;;12.30;5.40;;;;;;;21.94;47.90;101515.30;106800;1262;25386;-74
2023/10/23 06:49:00;;;;;;;8.90;5.10;;;;;;;21.97;47.92;101519.34;106799;1262;24062;-68
2023/10/23 06:51:27;;;;;;;11.70;5.80;;;;;;;22.01;47.78;101521.27;106800;1262;25365;-71
2023/10/23 06:53:54;;;;;;;10.50;5.00;;;;;;;22.04;47.64;101519.67;106788;1262;25375;-69
2023/10/23 06:56:21;;;;;;;13.10;4.60;;;;;;;22.08;47.53;101525.95;106709;1262;24038;-70
2023/10/23 06:58:48;;;;;;;15.30;5.40;;;;;;;22.12;47.41;101525.73;106709;1263;25392;-70
2023/10/23 07:01:15;;;;;;;13.60;4.40;;;;;;;22.14;47.51;101528.45;106733;1277;25467;-71
2023/10/23 07:03:46;;;;;;;15.10;4.80;;;;;;;22.19;47.70;101534.54;106799;1262;25361;-70
2023/10/23 07:06:13;;;;;;;11.10;4.60;;;;;;;22.19;48.15;101534.01;106490;1279;25409;-72
2023/10/23 07:08:40;;;;;;;6.90;4.10;;;;;;;22.20;48.43;101536.38;106841;1270;25510;-69
2023/10/23 07:11:14;;;;;;;12.50;5.10;;;;;;;22.24;48.71;101535.62;106679;1271;25493;-73
2023/10/23 07:13:41;;;;;;;10.20;4.40;;;;;;;22.28;48.54;101540.14;106730;1262;25281;-72
2023/10/23 07:16:09;;;;;;;6.90;4.40;;;;;;;22.34;48.89;101540.02;106690;1271;25369;-71
2023/10/23 07:18:36;;;;;;;10.10;4.50;;;;;;;22.43;48.66;101543.31;106648;1270;24247;-69
2023/10/23 07:21:03;;;;;;;9.80;4.50;;;;;;;22.49;48.48;101546.00;106825;1262;25386;-77
2023/10/23 07:23:31;;;;;;;7.70;4.50;;;;;;;22.52;48.58;101544.06;106775;1267;25962;-69
2023/10/23 07:26:10;;;;;;;7.00;4.30;;;;;;;22.54;48.72;101542.00;106886;1266;25417;-69
2023/10/23 07:28:40;;;;;;;9.40;4.80;;;;;;;22.57;48.71;101540.23;106740;1260;23293;-70
2023/10/23 07:31:08;;;;;;;8.80;4.10;;;;;;;22.60;48.54;101541.48;106702;1267;25500;-73
2023/10/23 07:33:35;;;;;;;9.30;4.90;;;;;;;22.62;48.18;101544.52;106769;1272;25425;-70
2023/10/23 07:36:06;;;;;;;9.80;4.10;;;;;;;22.64;48.09;101541.25;106816;1271;22587;-71
2023/10/23 07:38:33;;;;;;;;;;;;;;;22.64;48.11;101543.17;106762;1268;24280;-71
2023/10/23 07:41:00;;;;;;;7.90;3.60;;;;;;;22.66;48.04;101540.96;106854;1260;25361;-70
2023/10/23 07:43:28;;;;;;;9.20;3.90;;;;;;;22.69;47.87;101548.60;106826;1262;25528;-69
2023/10/23 07:45:55;;;;;;;10.90;3.90;;;;;;;22.72;47.67;101548.55;106764;1262;25438;-70
2023/10/23 07:48:39;;;;;;;8.60;3.80;;;;;;;22.79;47.61;101544.64;106757;1265;25472;-69
2023/10/23 07:51:06;;;;;;;7.50;3.70;;;;;;;22.84;47.51;101542.00;106743;1276;22539;-70
2023/10/23 07:53:35;;;;;;;5.70;3.30;;;;;;;22.90;46.98;101543.41;106822;1262;25477;-74
2023/10/23 07:56:04;;;;;;;11.50;4.40;;;;;;;22.93;46.52;101544.30;106734;1266;25406;-72
2023/10/23 07:58:31;;;;;;;10.50;4.10;;;;;;;22.95;46.37;101544.48;106507;1273;23288;-70
2023/10/23 08:01:05;;;;;;;8.50;3.90;;;;;;;22.97;46.20;101542.44;106737;1278;25455;-68
2023/10/23 08:03:36;;;;;;;12.20;3.80;;;;;;;22.99;46.02;101541.45;106561;1262;25383;-72
2023/10/23 08:06:05;;;;;;;12.10;4.20;;;;;;;23.00;45.91;101547.25;106421;1271;25356;-75
2023/10/23 08:08:34;;;;;;;10.10;3.60;;;;;;;23.00;45.88;101544.21;106349;1261;25477;-72
2023/10/23 08:11:05;;;;;;;12.40;4.40;;;;;;;23.00;45.86;101545.59;106340;1263;25432;-71
2023/10/23 08:13:32;;;;;;;6.70;3.70;;;;;;;23.01;45.56;101544.46;106467;1265;25344;-70
2023/10/23 08:16:00;;;;;;;7.60;4.00;;;;;;;23.02;45.39;101543.35;106164;1280;25480;-72
2023/10/23 08:18:28;;;;;;;8.20;4.00;;;;;;;23.03;45.47;101545.96;106320;1271;25635;-70
2023/10/23 08:21:13;;;;;;;9.30;3.70;;;;;;;23.04;45.45;101545.90;106465;1269;25347;-70
2023/10/23 08:23:46;;;;;;;7.10;4.30;;;;;;;23.07;45.60;101546.81;106290;1265;24376;-68
2023/10/23 08:26:13;;;;;;;8.50;3.90;;;;;;;23.11;45.94;101552.56;106357;1272;25311;-69
2023/10/23 08:28:40;;;;;;;10.20;4.40;;;;;;;23.17;46.31;101555.55;106352;1275;25536;-69
2023/10/23 08:31:27;;;;;;;10.10;4.30;;;;;;;23.21;47.08;101555.98;106522;1268;24242;-72
2023/10/23 08:34:05;;;;;;;7.00;4.10;;;;;;;23.26;47.51;101553.05;106797;1259;24220;-71
2023/10/23 08:36:33;;;;;;;9.00;4.10;;;;;;;23.33;47.07;101554.05;106744;1262;24225;-70
2023/10/23 08:39:00;;;;;;;9.50;4.00;;;;;;;23.39;47.03;101559.14;106590;1267;24362;-70
2023/10/23 08:41:28;;;;;;;9.60;3.90;;;;;;;23.43;47.12;101555.84;106343;1279;25365;-73
2023/10/23 08:43:55;;;;;;;9.30;3.90;;;;;;;23.47;46.94;101560.96;106688;1263;25510;-70
2023/10/23 08:46:26;;;;;;;6.80;3.30;;;;;;;23.50;46.73;101561.80;106732;1273;25412;-71
2023/10/23 08:48:53;;;;;;;7.20;3.20;;;;;;;23.56;46.30;101562.84;106352;1265;25494;-72
2023/10/23 08:51:20;;;;;;;9.70;3.20;;;;;;;23.60;45.92;101563.65;106631;1263;25435;-70
2023/10/23 08:53:49;;;;;;;5.90;3.20;;;;;;;23.71;44.42;101565.42;106423;1271;25361;-72
2023/10/23 08:56:37;;;;;;;7.90;3.00;;;;;;;23.80;43.97;101567.31;105665;1268;1003029;-71
2023/10/23 08:59:04;;;;;;;8.60;2.50;;;;;;;23.82;43.87;101568.08;106376;1272;24374;-71
2023/10/23 09:01:31;;;;;;;4.80;2.60;;;;;;;23.87;43.78;101570.42;106570;1271;22547;-70
2023/10/23 09:04:02;;;;;;;;;;;;;;;23.92;43.73;101573.98;106858;1268;24199;-72
2023/10/23 09:06:33;;;;;;;6.30;2.30;;;;;;;23.98;43.22;101574.45;106411;1272;24269;-73
2023/10/23 09:09:00;;;;;;;5.50;2.40;;;;;;;24.11;42.73;101573.67;106869;1261;24354;-69
2023/10/23 09:11:43;;;;;;;11.70;2.70;;;;;;;24.17;42.28;101577.86;106500;1265;25358;-69
2023/10/23 09:14:11;;;;;;;6.50;2.80;;;;;;;24.24;41.68;101577.92;106463;1265;22527;-72
2023/10/23 09:16:38;;;;;;;8.80;3.30;;;;;;;24.19;41.81;101578.79;106799;1272;25544;-71
2023/10/23 09:19:05;;;;;;;9.70;2.90;;;;;;;24.22;41.86;101579.80;106480;1269;25399;-71
2023/10/23 09:21:32;;;;;;;8.40;3.10;;;;;;;24.27;41.90;101575.81;106363;1274;25468;-70
2023/10/23 09:24:03;;;;;;;7.40;3.40;;;;;;;24.32;41.91;101574.77;105745;1272;1002882;-73
2023/10/23 09:26:30;;;;;;;5.60;2.80;;;;;;;24.37;41.78;101573.16;106682;1263;25347;-69
2023/10/23 09:28:57;;;;;;;6.40;3.40;;;;;;;24.43;41.62;101567.63;106724;1270;25361;-73
2023/10/23 09:31:24;;;;;;;9.00;3.60;;;;;;;24.50;41.68;101570.76;106714;1278;25350;-69
2023/10/23 09:33:51;;;;;;;7.10;2.90;;;;;;;24.54;42.04;101568.29;106691;1271;25511;-70
2023/10/23 09:36:19;;;;;;;7.70;2.70;;;;;;;24.59;41.96;101567.29;106740;1271;23205;-70
2023/10/23 09:38:58;;;;;;;6.20;3.30;;;;;;;24.63;41.80;101569.83;106458;1277;25541;-71
2023/10/23 09:41:25;;;;;;;11.20;3.70;;;;;;;24.68;41.96;101570.92;106621;1280;22541;-70
2023/10/23 09:43:52;;;;;;;8.90;3.80;;;;;;;24.72;41.88;101571.68;106431;1274;26207;-70
2023/10/23 09:46:19;;;;;;;6.00;3.20;;;;;;;24.76;41.72;101565.22;106377;1279;25418;-70
2023/10/23 09:48:46;;;;;;;7.10;3.20;;;;;;;24.80;41.77;101566.73;106723;1262;25339;-72
2023/10/23 09:51:15;;;;;;;7.60;2.70;;;;;;;24.84;41.55;101562.20;106585;1258;25569;-71
2023/10/23 09:53:44;;;;;;;6.10;3.00;;;;;;;24.87;41.12;101561.23;106798;1273;23232;-72
2023/10/23 09:56:20;;;;;;;6.10;2.90;;;;;;;25.01;40.76;101559.39;106782;1262;23481;-72
2023/10/23 09:58:52;;;;;;;6.40;3.30;;;;;;;24.99;40.45;101557.77;106372;1265;24662;-73
2023/10/23 10:01:19;;;;;;;7.00;2.80;;;;;;;25.02;40.11;101553.45;106387;1272;25386;-70
2023/10/23 10:03:46;;;;;;;8.90;3.80;;;;;;;25.07;40.01;101549.91;106393;1267;22562;-75
2023/10/23 10:06:13;;;;;;;8.70;3.50;;;;;;;25.12;39.90;101544.08;106283;1276;24296;-71
2023/10/23 10:08:41;;;;;;;11.20;4.20;;;;;;;25.18;39.87;101540.45;106871;1262;26506;-70
2023/10/23 10:11:08;;;;;;;10.30;4.50;;;;;;;25.23;39.82;101538.48;106604;1263;25358;-71
2023/10/23 10:13:36;;;;;;;6.90;3.40;;;;;;;25.28;39.92;101540.96;106317;1281;25551;-72
2023/10/23 10:16:04;;;;;;;7.40;3.80;;;;;;;25.31;40.37;101537.02;106329;1280;25389;-74
2023/10/23 10:18:31;;;;;;;7.30;4.00;;;;;;;25.32;40.72;101532.55;106473;1275;22632;-69
2023/10/23 10:20:59;;;;;;;5.90;4.10;;;;;;;25.32;40.78;101533.74;106337;1268;22544;-69
2023/10/23 10:23:26;;;;;;;9.50;5.00;;;;;;;25.34;40.43;101530.04;106265;1284;22974;-72
2023/10/23 10:25:53;;;;;;;11.30;4.70;;;;;;;25.38;40.09;101529.27;106284;1281;24337;-72
2023/10/23 10:28:25;;;;;;;5.90;4.50;;;;;;;25.42;39.98;101528.45;106261;1279;25419;-71
2023/10/23 10:30:54;;;;;;;7.20;3.80;;;;;;;25.46;39.79;101525.16;106446;1280;24525;-71
2023/10/23 10:33:29;;;;;;;8.20;4.70;;;;;;;25.49;39.80;101526.02;106434;1277;24258;-70
2023/10/23 10:36:16;;;;;;;8.40;4.00;;;;;;;25.52;39.87;101522.23;106287;1280;25508;-70
2023/10/23 10:39:05;;;;;;;9.40;4.10;;;;;;;25.52;39.80;101519.22;106402;1280;25500;-70
2023/10/23 10:41:34;;;;;;;10.90;3.90;;;;;;;25.63;39.64;101516.94;106333;1273;25402;-70
2023/10/23 10:44:01;;;;;;;7.90;3.50;;;;;;;25.72;39.62;101514.38;106333;1280;22628;-78
2023/10/23 10:46:29;;;;;;;5.90;3.70;;;;;;;25.58;39.86;101513.83;106714;1276;25508;-70
2023/10/23 10:48:56;;;;;;;6.10;3.60;;;;;;;25.55;39.36;101515.63;106804;1273;25417;-70
2023/10/23 10:51:24;;;;;;;8.80;4.00;;;;;;;25.59;38.98;101515.29;106626;1274;25421;-71
2023/10/23 10:54:10;;;;;;;6.60;3.10;;;;;;;25.75;38.96;101512.70;106430;1272;22536;-73
2023/10/23 10:56:37;;;;;;;4.80;3.20;;;;;;;25.79;38.71;101513.48;106705;1273;25376;-70
2023/10/23 10:59:05;;;;;;;8.10;3.00;;;;;;;25.71;38.63;101513.33;106804;1273;25409;-72
2023/10/23 11:01:32;;;;;;;6.50;3.40;;;;;;;25.63;38.53;101512.55;106764;1273;24217;-73
2023/10/23 11:04:00;;;;;;;5.50;3.10;;;;;;;25.62;38.21;101509.41;106732;1276;25380;-71
2023/10/23 11:06:27;;;;;;;8.40;3.10;;;;;;;25.64;38.31;101510.30;106703;1264;22538;-72
2023/10/23 11:08:54;;;;;;;6.00;3.30;;;;;;;25.69;38.30;101511.55;106587;1272;25602;-70
2023/10/23 11:11:21;;;;;;;7.40;3.10;;;;;;;25.73;38.34;101515.16;106487;1267;25351;-72
2023/10/23 11:13:49;;;;;;;7.90;2.80;;;;;;;25.74;38.68;101512.77;106486;1273;23176;-72
2023/10/23 11:16:15;;;;;;;6.60;2.70;;;;;;;25.74;38.89;101514.02;106662;1257;22543;-72